createdAt,value
2022-09-04T00:01:21.072Z,0.43
2022-09-04T00:04:14.641Z,0.40
2022-09-04T00:07:09.854Z,0.65
2022-09-04T00:10:05.640Z,0.30
2022-09-04T00:12:56.640Z,0.30
2022-09-04T00:15:47.512Z,0.32
2022-09-04T00:18:37.315Z,0.30
2022-09-04T00:21:31.411Z,0.40
2022-09-04T00:24:20.947Z,0.20
2022-09-04T00:27:11.162Z,0.22
2022-09-04T00:30:02.532Z,0.40
2022-09-04T00:32:54.811Z,0.30
2022-09-04T00:35:44.683Z,0.47
2022-09-04T00:38:40.223Z,0.38
2022-09-04T00:41:31.945Z,0.40
2022-09-04T00:44:34.073Z,0.22
2022-09-04T00:47:38.039Z,0.40
2022-09-04T00:53:27.748Z,0.20
2022-09-04T00:56:31.359Z,0.40
2022-09-04T00:59:26.535Z,0.45
2022-09-04T01:02:20.271Z,0.40
2022-09-04T01:08:03.537Z,0.40
2022-09-04T01:11:04.510Z,0.30
2022-09-04T01:13:54.456Z,0.35
2022-09-04T01:16:46.251Z,0.30
2022-09-04T01:19:43.146Z,0.15
2022-09-04T01:22:48.514Z,0.28
2022-09-04T01:25:50.961Z,0.30
2022-09-04T01:28:44.840Z,0.10
2022-09-04T01:31:37.713Z,0.63
2022-09-04T01:34:33.679Z,0.30
2022-09-04T01:37:31.219Z,0.30
2022-09-04T01:40:34.074Z,0.52
2022-09-04T01:43:25.486Z,0.25
2022-09-04T01:46:21.599Z,0.50
2022-09-04T01:49:13.658Z,0.38
2022-09-04T01:52:09.226Z,0.20
2022-09-04T01:55:01.691Z,0.20
2022-09-04T01:57:59.556Z,0.63
2022-09-04T02:00:58.440Z,0.20
2022-09-04T02:03:52.264Z,0.32
2022-09-04T02:06:44.946Z,0.50
2022-09-04T02:09:38.481Z,0.20
2022-09-04T02:15:19.710Z,0.30
2022-09-04T02:18:14.515Z,0.43
2022-09-04T02:21:03.777Z,0.20
2022-09-04T02:23:56.499Z,0.43
2022-09-04T02:26:49.286Z,0.40
2022-09-04T02:29:41.655Z,0.30
2022-09-04T02:32:33.184Z,0.35
2022-09-04T02:35:24.302Z,0.45
2022-09-04T02:38:19.076Z,0.30
2022-09-04T02:41:09.379Z,0.40
2022-09-04T02:44:04.027Z,0.40
2022-09-04T02:46:56.778Z,0.40
2022-09-04T02:49:49.958Z,0.28
2022-09-04T02:52:47.048Z,0.30
2022-09-04T02:55:44.505Z,0.80
2022-09-04T02:58:44.220Z,0.40
2022-09-04T03:01:34.786Z,0.30
2022-09-04T03:04:27.206Z,0.40
2022-09-04T03:07:20.104Z,0.30
2022-09-04T03:10:12.428Z,0.30
2022-09-04T03:13:05.915Z,0.80
2022-09-04T03:15:56.358Z,0.85
2022-09-04T03:18:55.468Z,0.30
2022-09-04T03:21:47.129Z,0.30
2022-09-04T03:24:37.391Z,0.40
2022-09-04T03:27:26.904Z,0.30
2022-09-04T03:30:15.150Z,0.30
2022-09-04T03:33:06.922Z,0.20
2022-09-04T03:35:57.423Z,0.40
2022-09-04T03:38:50.542Z,0.20
2022-09-04T03:44:33.501Z,0.10
2022-09-04T03:47:24.123Z,0.40
2022-09-04T03:50:16.110Z,0.20
2022-09-04T03:53:10.030Z,0.38
2022-09-04T03:56:11.669Z,0.25
2022-09-04T03:59:03.531Z,0.28
2022-09-04T04:01:55.514Z,0.50
2022-09-04T04:05:00.708Z,0.38
2022-09-04T04:07:55.025Z,0.40
2022-09-04T04:10:48.481Z,0.30
2022-09-04T04:13:43.798Z,0.45
2022-09-04T04:16:40.684Z,0.25
2022-09-04T04:19:52.285Z,0.30
2022-09-04T04:22:45.965Z,0.40
2022-09-04T04:25:42.494Z,0.20
2022-09-04T04:28:47.956Z,0.20
2022-09-04T04:31:42.586Z,0.25
2022-09-04T04:34:33.686Z,0.38
2022-09-04T04:37:27.116Z,0.20
2022-09-04T04:40:17.281Z,0.20
2022-09-04T04:43:10.870Z,0.20
2022-09-04T04:46:00.913Z,0.40
2022-09-04T04:48:56.139Z,0.32
2022-09-04T04:51:57.565Z,0.40
2022-09-04T04:54:52.615Z,0.40
2022-09-04T04:57:48.216Z,0.43
2022-09-04T05:00:43.213Z,0.45
2022-09-04T05:03:39.447Z,0.38
2022-09-04T05:06:30.644Z,0.30
2022-09-04T05:09:22.982Z,0.55
2022-09-04T05:12:17.486Z,0.40
2022-09-04T05:15:10.983Z,0.57
2022-09-04T05:18:00.591Z,0.40
2022-09-04T05:20:53.462Z,0.25
2022-09-04T05:23:49.111Z,0.30
2022-09-04T05:26:41.569Z,0.38
2022-09-04T05:29:36.490Z,0.30
2022-09-04T05:32:25.606Z,0.32
2022-09-04T05:35:15.812Z,0.28
2022-09-04T05:38:06.226Z,0.40
2022-09-04T05:41:00.028Z,0.52
2022-09-04T05:46:40.481Z,0.50
2022-09-04T05:52:33.617Z,0.30
2022-09-04T05:55:42.059Z,0.43
2022-09-04T05:58:44.025Z,1.13
2022-09-04T06:01:42.912Z,0.30
2022-09-04T06:04:41.606Z,0.52
2022-09-04T06:07:33.240Z,0.38
2022-09-04T06:10:25.794Z,0.30
2022-09-04T06:13:33.618Z,0.40
2022-09-04T06:16:38.143Z,0.73
2022-09-04T06:19:34.248Z,0.35
2022-09-04T06:22:29.091Z,0.30
2022-09-04T06:25:26.803Z,0.20
2022-09-04T06:28:20.798Z,0.40
2022-09-04T06:31:15.565Z,0.20
2022-09-04T06:34:10.269Z,0.40
2022-09-04T06:37:01.173Z,0.32
2022-09-04T06:40:07.006Z,0.28
2022-09-04T06:43:00.756Z,0.43
2022-09-04T06:45:55.879Z,0.30
2022-09-04T06:48:56.207Z,0.43
2022-09-04T06:51:52.381Z,0.40
2022-09-04T06:54:46.805Z,0.43
2022-09-04T06:57:51.221Z,0.47
2022-09-04T07:00:40.210Z,0.30
2022-09-04T07:03:33.631Z,0.45
2022-09-04T07:06:24.032Z,0.60
2022-09-04T07:09:14.111Z,0.43
2022-09-04T07:12:17.253Z,0.40
2022-09-04T07:15:38.206Z,0.40
2022-09-04T07:18:54.404Z,0.20
2022-09-04T07:21:44.857Z,0.30
2022-09-04T07:24:46.720Z,0.47
2022-09-04T07:27:41.895Z,0.45
2022-09-04T07:30:31.780Z,0.43
2022-09-04T07:33:23.299Z,0.52
2022-09-04T07:36:16.741Z,0.50
2022-09-04T07:39:06.874Z,0.57
2022-09-04T07:41:59.078Z,0.65
2022-09-04T07:44:50.110Z,0.57
2022-09-04T07:47:43.770Z,0.45
2022-09-04T07:50:35.291Z,0.40
2022-09-04T07:53:30.934Z,0.55
2022-09-04T07:56:21.328Z,0.40
2022-09-04T07:59:22.559Z,0.40
2022-09-04T08:02:22.894Z,0.68
2022-09-04T08:05:19.900Z,0.50
2022-09-04T08:08:17.802Z,0.30
2022-09-04T08:11:15.544Z,0.40
2022-09-04T08:14:11.881Z,0.45
2022-09-04T08:17:25.440Z,0.38
2022-09-04T08:20:28.989Z,0.68
2022-09-04T08:23:24.596Z,0.40
2022-09-04T08:26:17.771Z,0.50
2022-09-04T08:29:16.635Z,0.47
2022-09-04T08:32:11.945Z,0.88
2022-09-04T08:35:09.932Z,0.30
2022-09-04T08:38:02.931Z,0.60
2022-09-04T08:41:12.115Z,0.47
2022-09-04T08:44:15.337Z,0.63
2022-09-04T08:47:14.442Z,0.60
2022-09-04T08:50:14.571Z,0.40
2022-09-04T08:53:18.121Z,0.50
2022-09-04T08:56:20.159Z,0.50
2022-09-04T08:59:27.151Z,0.50
2022-09-04T09:02:32.441Z,0.80
2022-09-04T09:05:34.367Z,0.73
2022-09-04T09:08:40.073Z,0.32
2022-09-04T09:11:44.632Z,0.43
2022-09-04T09:14:47.081Z,0.40
2022-09-04T09:17:40.308Z,0.50
2022-09-04T09:20:29.152Z,0.50
2022-09-04T09:23:19.865Z,0.40
2022-09-04T09:26:13.559Z,0.77
2022-09-04T09:29:19.279Z,0.60
2022-09-04T09:32:30.757Z,0.65
2022-09-04T09:35:37.724Z,0.40
2022-09-04T09:38:48.683Z,0.70
2022-09-04T09:41:59.564Z,0.73
2022-09-04T09:45:06.282Z,0.52
2022-09-04T09:48:14.512Z,0.70
2022-09-04T09:51:13.600Z,0.52
2022-09-04T09:54:19.546Z,0.55
2022-09-04T09:57:33.258Z,0.50
2022-09-04T10:00:25.266Z,0.50
2022-09-04T10:03:33.610Z,0.88
2022-09-04T10:06:39.466Z,0.50
2022-09-04T10:09:44.626Z,0.55
2022-09-04T10:12:40.867Z,0.38
2022-09-04T10:15:55.078Z,0.70
2022-09-04T10:18:57.217Z,0.35
2022-09-04T10:22:03.140Z,0.45
2022-09-04T10:25:12.655Z,0.77
2022-09-04T10:28:21.955Z,0.88
2022-09-04T10:31:27.780Z,0.60
2022-09-04T10:34:29.249Z,0.70
2022-09-04T10:37:22.493Z,0.70
2022-09-04T10:40:32.053Z,0.50
2022-09-04T10:43:43.057Z,0.60
2022-09-04T10:46:41.216Z,0.60
2022-09-04T10:49:37.454Z,0.82
2022-09-04T10:52:40.820Z,0.60
2022-09-04T10:55:40.985Z,0.50
2022-09-04T10:58:31.150Z,0.57
2022-09-04T11:01:36.721Z,0.63
2022-09-04T11:04:45.848Z,0.68
2022-09-04T11:07:51.423Z,1.08
2022-09-04T11:10:51.438Z,1.33
2022-09-04T11:13:51.500Z,0.77
2022-09-04T11:16:51.385Z,0.60
2022-09-04T11:20:17.544Z,0.80
2022-09-04T11:23:31.847Z,0.70
2022-09-04T11:26:39.315Z,0.85
2022-09-04T11:29:40.311Z,0.70
2022-09-04T11:32:51.940Z,0.63
2022-09-04T11:35:49.851Z,0.70
2022-09-04T11:38:50.764Z,0.90
2022-09-04T11:41:58.861Z,0.90
2022-09-04T11:44:52.874Z,0.85
2022-09-04T11:47:54.516Z,0.90
2022-09-04T11:50:56.533Z,0.65
2022-09-04T11:53:51.206Z,0.60
2022-09-04T11:56:49.775Z,0.90
2022-09-04T12:00:05.874Z,1.02
2022-09-04T12:03:10.563Z,0.82
2022-09-04T12:06:04.418Z,1.10
2022-09-04T12:09:03.423Z,0.80
2022-09-04T12:12:12.483Z,1.02
2022-09-04T12:15:23.358Z,0.95
2022-09-04T12:18:33.500Z,0.70
2022-09-04T12:21:36.784Z,0.63
2022-09-04T12:24:32.222Z,1.02
2022-09-04T12:27:32.464Z,1.25
2022-09-04T12:30:23.683Z,0.90
2022-09-04T12:33:19.749Z,0.77
2022-09-04T12:36:33.237Z,0.77
2022-09-04T12:39:35.351Z,1.13
2022-09-04T12:42:33.616Z,0.80
2022-09-04T12:45:24.714Z,1.25
2022-09-04T12:48:17.956Z,0.55
2022-09-04T12:51:09.856Z,0.90
2022-09-04T12:54:04.997Z,0.70
2022-09-04T12:56:58.815Z,1.05
2022-09-04T12:59:57.256Z,1.05
2022-09-04T13:02:54.442Z,0.95
2022-09-04T13:05:49.781Z,0.80
2022-09-04T13:08:47.446Z,1.00
2022-09-04T13:11:41.995Z,0.88
2022-09-04T13:14:38.001Z,0.70
2022-09-04T13:17:31.942Z,1.20
2022-09-04T13:20:22.610Z,1.53
2022-09-04T13:23:19.027Z,1.08
2022-09-04T13:26:25.434Z,0.90
2022-09-04T13:29:17.978Z,1.20
2022-09-04T13:32:21.739Z,0.90
2022-09-04T13:35:19.269Z,1.02
2022-09-04T13:38:27.093Z,1.00
2022-09-04T13:41:21.957Z,1.45
2022-09-04T13:44:13.850Z,1.05
2022-09-04T13:47:03.275Z,0.98
2022-09-04T13:49:56.407Z,1.38
2022-09-04T13:52:46.077Z,1.30
2022-09-04T13:55:34.876Z,1.95
2022-09-04T13:58:29.646Z,1.20
2022-09-04T14:01:22.421Z,0.88
2022-09-04T14:04:11.446Z,1.30
2022-09-04T14:07:06.193Z,1.08
2022-09-04T14:09:58.736Z,1.05
2022-09-04T14:12:53.828Z,1.40
2022-09-04T14:15:51.485Z,1.52
2022-09-04T14:18:57.868Z,1.10
2022-09-04T14:22:00.310Z,0.80
2022-09-04T14:24:58.705Z,1.35
2022-09-04T14:27:51.875Z,0.90
2022-09-04T14:30:43.581Z,0.90
2022-09-04T14:33:36.108Z,1.17
2022-09-04T14:36:27.352Z,1.42
2022-09-04T14:39:19.286Z,1.10
2022-09-04T14:42:16.283Z,0.82
2022-09-04T14:45:13.272Z,0.93
2022-09-04T14:48:03.746Z,1.48
2022-09-04T14:50:59.989Z,1.30
2022-09-04T14:53:48.864Z,1.00
2022-09-04T14:56:38.672Z,0.90
2022-09-04T14:59:29.899Z,0.98
2022-09-04T15:02:25.378Z,0.77
2022-09-04T15:05:19.733Z,1.38
2022-09-04T15:08:10.302Z,1.02
2022-09-04T15:11:00.529Z,1.23
2022-09-04T15:13:56.009Z,1.48
2022-09-04T15:16:49.738Z,1.50
2022-09-04T15:19:45.570Z,1.38
2022-09-04T15:22:40.261Z,1.40
2022-09-04T15:25:57.608Z,1.58
2022-09-04T15:28:47.948Z,1.30
2022-09-04T15:31:37.773Z,1.45
2022-09-04T15:34:27.895Z,1.25
2022-09-04T15:37:20.216Z,1.52
2022-09-04T15:40:12.174Z,1.08
2022-09-04T15:43:04.069Z,1.48
2022-09-04T15:45:57.930Z,1.50
2022-09-04T15:48:53.270Z,1.08
2022-09-04T15:51:44.220Z,1.73
2022-09-04T15:54:52.706Z,1.42
2022-09-04T15:57:56.049Z,0.90
2022-09-04T16:00:56.438Z,1.63
2022-09-04T16:03:49.118Z,0.82
2022-09-04T16:06:44.319Z,1.08
2022-09-04T16:09:35.050Z,1.08
2022-09-04T16:12:27.952Z,1.55
2022-09-04T16:15:19.510Z,1.00
2022-09-04T16:18:12.480Z,1.00
2022-09-04T16:21:01.786Z,1.08
2022-09-04T16:23:52.616Z,1.10
2022-09-04T16:26:40.239Z,1.20
2022-09-04T16:29:36.400Z,1.63
2022-09-04T16:32:25.040Z,1.55
2022-09-04T16:35:19.495Z,1.40
2022-09-04T16:38:09.369Z,1.40
2022-09-04T16:41:00.254Z,1.17
2022-09-04T16:44:03.119Z,1.95
2022-09-04T16:47:02.796Z,1.23
2022-09-04T16:49:57.832Z,1.20
2022-09-04T16:52:46.377Z,1.45
2022-09-04T16:55:36.298Z,2.03
2022-09-04T16:58:35.527Z,1.13
2022-09-04T17:01:37.411Z,0.73
2022-09-04T17:04:41.507Z,1.50
2022-09-04T17:07:33.333Z,0.98
2022-09-04T17:10:36.515Z,1.00
2022-09-04T17:13:28.411Z,1.05
2022-09-04T17:16:18.513Z,1.30
2022-09-04T17:19:05.963Z,1.13
2022-09-04T17:29:01.478Z,0.98
2022-09-04T17:29:19.621Z,0.82
2022-09-04T17:29:23.944Z,1.00
2022-09-04T17:31:56.189Z,1.15
2022-09-04T17:40:35.958Z,1.23
2022-09-04T17:40:57.004Z,1.00
2022-09-04T17:41:38.210Z,1.30
2022-09-04T17:44:37.507Z,1.13
2022-09-04T17:47:29.519Z,1.10
2022-09-04T17:50:19.291Z,1.23
2022-09-04T17:53:13.178Z,0.70
2022-09-04T17:56:12.386Z,0.77
2022-09-04T17:59:02.588Z,0.95
2022-09-04T18:01:54.771Z,0.82
2022-09-04T18:04:47.245Z,0.85
2022-09-04T18:08:07.996Z,1.50
2022-09-04T18:10:53.018Z,0.80
2022-09-04T18:13:42.509Z,1.02
2022-09-04T18:17:12.053Z,1.38
2022-09-04T18:20:00.601Z,0.75
2022-09-04T18:23:04.779Z,1.20
2022-09-04T18:25:56.203Z,1.30
2022-09-04T18:28:50.062Z,1.20
2022-09-04T18:37:09.100Z,0.80
2022-09-04T18:37:18.980Z,0.68
2022-09-04T18:38:01.368Z,0.82
2022-09-04T18:44:47.975Z,1.08
2022-09-04T18:50:23.675Z,0.90
2022-09-04T18:50:34.959Z,0.98
2022-09-04T18:51:01.938Z,0.85
2022-09-04T18:53:39.045Z,1.90
2022-09-04T18:56:32.340Z,1.75
2022-09-04T18:59:22.121Z,0.60
2022-09-04T19:02:14.894Z,2.33
2022-09-04T19:05:04.046Z,0.90
2022-09-04T19:07:53.829Z,1.00
2022-09-04T19:10:46.695Z,1.08
2022-09-04T19:13:38.623Z,0.98
2022-09-04T19:16:31.082Z,1.33
2022-09-04T19:19:23.495Z,1.20
2022-09-04T19:22:18.094Z,1.10
2022-09-04T19:25:07.087Z,1.13
2022-09-04T19:27:58.073Z,0.90
2022-09-04T19:30:51.161Z,0.70
2022-09-04T19:33:43.155Z,0.90
2022-09-04T19:36:36.980Z,0.68
2022-09-04T19:45:53.703Z,0.77
2022-09-04T19:45:59.055Z,0.90
2022-09-04T19:46:18.264Z,0.65
2022-09-04T19:49:43.811Z,0.82
2022-09-04T19:53:34.101Z,0.90
2022-09-04T19:55:38.179Z,0.73
2022-09-04T19:58:30.288Z,1.00
2022-09-04T20:01:18.514Z,0.98
2022-09-04T20:04:11.592Z,0.70
2022-09-04T20:07:02.737Z,0.80
2022-09-04T20:09:51.597Z,0.43
2022-09-04T20:12:43.127Z,0.80
2022-09-04T20:15:38.529Z,0.75
2022-09-04T20:18:29.867Z,0.80
2022-09-04T20:21:20.245Z,0.70
2022-09-04T20:24:12.198Z,0.70
2022-09-04T20:27:03.547Z,0.68
2022-09-04T20:29:55.420Z,0.70
2022-09-04T20:32:49.510Z,0.52
2022-09-04T20:35:46.501Z,0.80
2022-09-04T20:38:41.056Z,0.60
2022-09-04T20:41:32.352Z,0.60
2022-09-04T20:44:24.804Z,0.55
2022-09-04T20:52:45.880Z,0.73
2022-09-04T20:52:54.193Z,0.73
2022-09-04T20:53:41.578Z,0.57
2022-09-04T20:58:11.313Z,0.67
2022-09-04T21:03:15.016Z,0.73
2022-09-04T21:03:21.232Z,0.45
2022-09-04T21:06:22.720Z,0.60
2022-09-04T21:09:19.997Z,0.55
2022-09-04T21:12:16.540Z,0.63
2022-09-04T21:15:08.563Z,0.73
2022-09-04T21:18:04.146Z,0.60
2022-09-04T21:21:02.784Z,0.50
2022-09-04T21:24:02.999Z,0.50
2022-09-04T21:27:01.545Z,0.40
2022-09-04T21:29:59.497Z,0.60
2022-09-04T21:33:03.691Z,0.65
2022-09-04T21:36:26.958Z,0.57
2022-09-04T21:39:24.061Z,0.60
2022-09-04T21:42:22.153Z,0.40
2022-09-04T21:45:28.292Z,0.50
2022-09-04T21:48:36.585Z,0.50
2022-09-04T21:51:36.445Z,0.50
2022-09-04T21:54:37.828Z,0.50
2022-09-04T22:02:32.418Z,0.57
2022-09-04T22:02:38.284Z,0.63
2022-09-04T22:04:16.514Z,0.40
2022-09-04T22:10:11.950Z,0.28
2022-09-04T22:13:41.541Z,0.50
2022-09-04T22:13:50.241Z,0.50
2022-09-04T22:16:54.928Z,0.73
2022-09-04T22:19:54.476Z,0.70
2022-09-04T22:22:59.676Z,0.55
2022-09-04T22:25:47.686Z,0.57
2022-09-04T22:28:49.612Z,0.52
2022-09-04T22:31:51.899Z,0.52
2022-09-04T22:34:54.337Z,0.77
2022-09-04T22:38:02.698Z,0.40
2022-09-04T22:41:02.155Z,0.43
2022-09-04T22:43:54.702Z,0.50
2022-09-04T22:46:48.918Z,0.40
2022-09-04T22:49:57.418Z,0.70
2022-09-04T22:52:53.366Z,0.47
2022-09-04T22:56:23.998Z,0.60
2022-09-04T22:59:28.120Z,0.52
2022-09-04T23:05:12.490Z,0.50
2022-09-04T23:13:45.048Z,0.30
2022-09-04T23:13:59.149Z,0.52
2022-09-04T23:14:44.643Z,0.45
2022-09-04T23:17:58.200Z,0.55
2022-09-04T23:26:33.254Z,0.57
2022-09-04T23:26:52.826Z,0.40
2022-09-04T23:27:35.564Z,0.38
2022-09-04T23:30:27.627Z,0.47
2022-09-04T23:33:32.585Z,0.40
2022-09-04T23:36:33.201Z,0.55
2022-09-04T23:39:29.931Z,0.40
2022-09-04T23:42:31.376Z,0.68
2022-09-04T23:45:29.129Z,0.40
2022-09-04T23:48:25.094Z,0.50
2022-09-04T23:51:18.623Z,0.40
2022-09-04T23:54:25.243Z,0.50
2022-09-04T23:57:26.326Z,0.40
